sensor_id;sensor_type;location;lat;lon;timestamp;temperature;humidity
67901;DHT22;54700;51.796;10.956;2022-08-25T00:00:18;18.90;64.00
67901;DHT22;54700;51.796;10.956;2022-08-25T00:02:45;18.90;64.20
67901;DHT22;54700;51.796;10.956;2022-08-25T00:05:14;18.90;64.60
67901;DHT22;54700;51.796;10.956;2022-08-25T00:07:43;18.90;64.80
67901;DHT22;54700;51.796;10.956;2022-08-25T00:10:11;18.90;65.00
67901;DHT22;54700;51.796;10.956;2022-08-25T00:12:38;18.90;65.30
67901;DHT22;54700;51.796;10.956;2022-08-25T00:15:05;18.90;65.20
67901;DHT22;54700;51.796;10.956;2022-08-25T00:17:33;18.90;65.30
67901;DHT22;54700;51.796;10.956;2022-08-25T00:20:00;18.90;65.70
67901;DHT22;54700;51.796;10.956;2022-08-25T00:22:29;18.90;65.90
67901;DHT22;54700;51.796;10.956;2022-08-25T00:24:56;18.80;66.00
67901;DHT22;54700;51.796;10.956;2022-08-25T00:27:22;18.80;66.20
67901;DHT22;54700;51.796;10.956;2022-08-25T00:29:50;18.80;66.20
67901;DHT22;54700;51.796;10.956;2022-08-25T00:32:16;18.80;66.00
67901;DHT22;54700;51.796;10.956;2022-08-25T00:34:43;18.80;66.10
67901;DHT22;54700;51.796;10.956;2022-08-25T00:37:10;18.70;66.20
67901;DHT22;54700;51.796;10.956;2022-08-25T00:39:38;18.70;66.40
67901;DHT22;54700;51.796;10.956;2022-08-25T00:42:05;18.70;66.60
67901;DHT22;54700;51.796;10.956;2022-08-25T00:44:33;18.70;66.70
67901;DHT22;54700;51.796;10.956;2022-08-25T00:47:01;18.70;66.90
67901;DHT22;54700;51.796;10.956;2022-08-25T00:49:29;18.70;67.10
67901;DHT22;54700;51.796;10.956;2022-08-25T00:52:00;18.60;67.20
67901;DHT22;54700;51.796;10.956;2022-08-25T00:54:31;18.60;67.60
67901;DHT22;54700;51.796;10.956;2022-08-25T00:57:05;18.60;67.50
67901;DHT22;54700;51.796;10.956;2022-08-25T00:59:34;18.60;67.50
67901;DHT22;54700;51.796;10.956;2022-08-25T01:02:02;18.60;67.60
67901;DHT22;54700;51.796;10.956;2022-08-25T01:04:30;18.50;67.90
67901;DHT22;54700;51.796;10.956;2022-08-25T01:06:57;18.50;67.90
67901;DHT22;54700;51.796;10.956;2022-08-25T01:09:25;18.50;68.20
67901;DHT22;54700;51.796;10.956;2022-08-25T01:11:53;18.50;68.40
67901;DHT22;54700;51.796;10.956;2022-08-25T01:14:22;18.50;68.70
67901;DHT22;54700;51.796;10.956;2022-08-25T01:16:51;18.40;68.70
67901;DHT22;54700;51.796;10.956;2022-08-25T01:19:18;18.40;68.80
67901;DHT22;54700;51.796;10.956;2022-08-25T01:21:48;18.40;68.90
67901;DHT22;54700;51.796;10.956;2022-08-25T01:24:18;18.40;69.10
67901;DHT22;54700;51.796;10.956;2022-08-25T01:26:49;18.40;69.30
67901;DHT22;54700;51.796;10.956;2022-08-25T01:29:16;18.30;69.60
67901;DHT22;54700;51.796;10.956;2022-08-25T01:31:52;18.30;69.80
67901;DHT22;54700;51.796;10.956;2022-08-25T01:34:22;18.20;70.00
67901;DHT22;54700;51.796;10.956;2022-08-25T01:36:51;18.20;69.60
67901;DHT22;54700;51.796;10.956;2022-08-25T01:39:19;18.20;70.00
67901;DHT22;54700;51.796;10.956;2022-08-25T01:41:53;18.20;70.20
67901;DHT22;54700;51.796;10.956;2022-08-25T01:44:35;18.10;70.40
67901;DHT22;54700;51.796;10.956;2022-08-25T01:47:04;18.10;70.50
67901;DHT22;54700;51.796;10.956;2022-08-25T01:49:32;18.00;70.70
67901;DHT22;54700;51.796;10.956;2022-08-25T01:52:01;18.00;70.90
67901;DHT22;54700;51.796;10.956;2022-08-25T01:54:32;18.00;71.00
67901;DHT22;54700;51.796;10.956;2022-08-25T01:56:58;18.00;71.20
67901;DHT22;54700;51.796;10.956;2022-08-25T01:59:25;18.00;71.10
67901;DHT22;54700;51.796;10.956;2022-08-25T02:01:52;17.90;71.20
67901;DHT22;54700;51.796;10.956;2022-08-25T02:04:19;17.90;71.30
67901;DHT22;54700;51.796;10.956;2022-08-25T02:06:46;17.80;71.30
67901;DHT22;54700;51.796;10.956;2022-08-25T02:09:16;17.80;71.60
67901;DHT22;54700;51.796;10.956;2022-08-25T02:11:44;17.80;71.60
67901;DHT22;54700;51.796;10.956;2022-08-25T02:14:13;17.80;71.90
67901;DHT22;54700;51.796;10.956;2022-08-25T02:16:41;17.80;71.70
67901;DHT22;54700;51.796;10.956;2022-08-25T02:19:12;17.80;71.80
67901;DHT22;54700;51.796;10.956;2022-08-25T02:21:39;17.80;72.80
67901;DHT22;54700;51.796;10.956;2022-08-25T02:24:08;17.80;71.90
67901;DHT22;54700;51.796;10.956;2022-08-25T02:26:37;17.80;72.20
67901;DHT22;54700;51.796;10.956;2022-08-25T02:29:05;17.80;72.10
67901;DHT22;54700;51.796;10.956;2022-08-25T02:31:33;17.80;72.10
67901;DHT22;54700;51.796;10.956;2022-08-25T02:34:00;17.80;72.30
67901;DHT22;54700;51.796;10.956;2022-08-25T02:36:27;17.80;72.40
67901;DHT22;54700;51.796;10.956;2022-08-25T02:38:56;17.80;72.70
67901;DHT22;54700;51.796;10.956;2022-08-25T02:41:23;17.80;72.90
67901;DHT22;54700;51.796;10.956;2022-08-25T02:43:53;17.80;72.70
67901;DHT22;54700;51.796;10.956;2022-08-25T02:46:20;17.70;72.70
67901;DHT22;54700;51.796;10.956;2022-08-25T02:48:49;17.80;72.70
67901;DHT22;54700;51.796;10.956;2022-08-25T02:51:17;17.70;72.60
67901;DHT22;54700;51.796;10.956;2022-08-25T02:53:45;17.70;72.80
67901;DHT22;54700;51.796;10.956;2022-08-25T02:56:12;17.60;73.00
67901;DHT22;54700;51.796;10.956;2022-08-25T02:58:40;17.50;73.00
67901;DHT22;54700;51.796;10.956;2022-08-25T03:01:09;17.60;73.10
67901;DHT22;54700;51.796;10.956;2022-08-25T03:03:36;17.60;72.90
67901;DHT22;54700;51.796;10.956;2022-08-25T03:06:04;17.60;72.70
67901;DHT22;54700;51.796;10.956;2022-08-25T03:08:32;17.60;72.70
67901;DHT22;54700;51.796;10.956;2022-08-25T03:10:59;17.60;72.40
67901;DHT22;54700;51.796;10.956;2022-08-25T03:13:25;17.60;72.80
67901;DHT22;54700;51.796;10.956;2022-08-25T03:15:52;17.60;73.10
67901;DHT22;54700;51.796;10.956;2022-08-25T03:18:20;17.60;73.20
67901;DHT22;54700;51.796;10.956;2022-08-25T03:20:48;17.60;73.30
67901;DHT22;54700;51.796;10.956;2022-08-25T03:23:14;17.60;73.20
67901;DHT22;54700;51.796;10.956;2022-08-25T03:25:42;17.60;73.30
67901;DHT22;54700;51.796;10.956;2022-08-25T03:28:26;17.60;73.40
67901;DHT22;54700;51.796;10.956;2022-08-25T03:30:55;17.50;73.60
67901;DHT22;54700;51.796;10.956;2022-08-25T03:33:26;17.50;73.70
67901;DHT22;54700;51.796;10.956;2022-08-25T03:35:53;17.50;73.90
67901;DHT22;54700;51.796;10.956;2022-08-25T03:38:20;17.50;74.00
67901;DHT22;54700;51.796;10.956;2022-08-25T03:40:47;17.50;74.10
67901;DHT22;54700;51.796;10.956;2022-08-25T03:43:14;17.40;74.10
67901;DHT22;54700;51.796;10.956;2022-08-25T03:45:42;17.40;74.30
67901;DHT22;54700;51.796;10.956;2022-08-25T03:48:09;17.40;74.50
67901;DHT22;54700;51.796;10.956;2022-08-25T03:50:42;17.40;74.60
67901;DHT22;54700;51.796;10.956;2022-08-25T03:53:10;17.40;74.60
67901;DHT22;54700;51.796;10.956;2022-08-25T03:55:37;17.40;74.80
67901;DHT22;54700;51.796;10.956;2022-08-25T03:58:04;17.40;74.50
67901;DHT22;54700;51.796;10.956;2022-08-25T04:00:30;17.40;74.70
67901;DHT22;54700;51.796;10.956;2022-08-25T04:02:57;17.30;74.70
67901;DHT22;54700;51.796;10.956;2022-08-25T04:05:24;17.30;74.80
67901;DHT22;54700;51.796;10.956;2022-08-25T04:07:52;17.30;75.00
67901;DHT22;54700;51.796;10.956;2022-08-25T04:10:19;17.20;74.60
67901;DHT22;54700;51.796;10.956;2022-08-25T04:12:46;17.20;74.50
67901;DHT22;54700;51.796;10.956;2022-08-25T04:15:13;17.20;75.70
67901;DHT22;54700;51.796;10.956;2022-08-25T04:17:40;17.20;75.10
67901;DHT22;54700;51.796;10.956;2022-08-25T04:20:07;17.10;74.70
67901;DHT22;54700;51.796;10.956;2022-08-25T04:22:36;17.10;75.20
67901;DHT22;54700;51.796;10.956;2022-08-25T04:25:05;17.10;75.10
67901;DHT22;54700;51.796;10.956;2022-08-25T04:27:33;17.10;75.30
67901;DHT22;54700;51.796;10.956;2022-08-25T04:30:01;17.10;75.30
67901;DHT22;54700;51.796;10.956;2022-08-25T04:32:27;17.10;75.30
67901;DHT22;54700;51.796;10.956;2022-08-25T04:34:56;17.10;75.60
67901;DHT22;54700;51.796;10.956;2022-08-25T04:37:23;17.10;75.40
67901;DHT22;54700;51.796;10.956;2022-08-25T04:39:49;17.20;75.50
67901;DHT22;54700;51.796;10.956;2022-08-25T04:42:17;17.30;75.20
67901;DHT22;54700;51.796;10.956;2022-08-25T04:44:44;17.40;74.90
67901;DHT22;54700;51.796;10.956;2022-08-25T04:47:11;17.70;74.00
67901;DHT22;54700;51.796;10.956;2022-08-25T04:49:37;17.90;73.20
67901;DHT22;54700;51.796;10.956;2022-08-25T04:52:05;17.90;73.20
67901;DHT22;54700;51.796;10.956;2022-08-25T04:54:32;17.90;73.40
67901;DHT22;54700;51.796;10.956;2022-08-25T04:56:58;17.80;73.30
67901;DHT22;54700;51.796;10.956;2022-08-25T04:59:27;17.70;73.70
67901;DHT22;54700;51.796;10.956;2022-08-25T05:01:55;17.70;74.00
67901;DHT22;54700;51.796;10.956;2022-08-25T05:04:27;17.80;74.00
67901;DHT22;54700;51.796;10.956;2022-08-25T05:07:05;17.70;74.80
67901;DHT22;54700;51.796;10.956;2022-08-25T05:09:55;17.70;74.50
67901;DHT22;54700;51.796;10.956;2022-08-25T05:12:22;17.70;74.60
67901;DHT22;54700;51.796;10.956;2022-08-25T05:14:52;17.80;74.30
67901;DHT22;54700;51.796;10.956;2022-08-25T05:17:19;17.80;73.80
67901;DHT22;54700;51.796;10.956;2022-08-25T05:19:45;17.90;73.60
67901;DHT22;54700;51.796;10.956;2022-08-25T05:22:13;17.90;73.50
67901;DHT22;54700;51.796;10.956;2022-08-25T05:24:39;17.90;73.20
67901;DHT22;54700;51.796;10.956;2022-08-25T05:27:06;17.90;72.90
67901;DHT22;54700;51.796;10.956;2022-08-25T05:29:33;18.00;72.40
67901;DHT22;54700;51.796;10.956;2022-08-25T05:32:02;18.00;73.30
67901;DHT22;54700;51.796;10.956;2022-08-25T05:34:29;18.00;72.40
67901;DHT22;54700;51.796;10.956;2022-08-25T05:36:55;18.10;72.70
67901;DHT22;54700;51.796;10.956;2022-08-25T05:39:24;18.10;72.50
67901;DHT22;54700;51.796;10.956;2022-08-25T05:41:51;18.10;72.60
67901;DHT22;54700;51.796;10.956;2022-08-25T05:44:20;18.20;72.80
67901;DHT22;54700;51.796;10.956;2022-08-25T05:46:47;18.30;72.30
67901;DHT22;54700;51.796;10.956;2022-08-25T05:49:23;18.40;72.00
67901;DHT22;54700;51.796;10.956;2022-08-25T05:51:53;18.50;71.80
67901;DHT22;54700;51.796;10.956;2022-08-25T05:54:51;18.50;71.50
67901;DHT22;54700;51.796;10.956;2022-08-25T05:57:18;18.60;71.60
67901;DHT22;54700;51.796;10.956;2022-08-25T05:59:45;18.70;71.20
67901;DHT22;54700;51.796;10.956;2022-08-25T06:02:13;18.80;71.10
67901;DHT22;54700;51.796;10.956;2022-08-25T06:05:00;18.90;70.90
67901;DHT22;54700;51.796;10.956;2022-08-25T06:07:30;18.90;70.60
67901;DHT22;54700;51.796;10.956;2022-08-25T06:10:00;18.90;70.40
67901;DHT22;54700;51.796;10.956;2022-08-25T06:12:29;19.00;70.60
67901;DHT22;54700;51.796;10.956;2022-08-25T06:14:58;19.00;70.60
67901;DHT22;54700;51.796;10.956;2022-08-25T06:17:28;19.10;70.30
67901;DHT22;54700;51.796;10.956;2022-08-25T06:20:00;19.20;70.10
67901;DHT22;54700;51.796;10.956;2022-08-25T06:22:29;19.30;69.90
67901;DHT22;54700;51.796;10.956;2022-08-25T06:25:18;19.30;69.70
67901;DHT22;54700;51.796;10.956;2022-08-25T06:27:46;19.40;69.30
67901;DHT22;54700;51.796;10.956;2022-08-25T06:30:24;19.50;69.00
67901;DHT22;54700;51.796;10.956;2022-08-25T06:33:04;19.50;68.80
67901;DHT22;54700;51.796;10.956;2022-08-25T06:35:43;19.60;68.70
67901;DHT22;54700;51.796;10.956;2022-08-25T06:38:11;19.60;68.30
67901;DHT22;54700;51.796;10.956;2022-08-25T06:40:39;19.70;68.30
67901;DHT22;54700;51.796;10.956;2022-08-25T06:43:09;19.70;68.00
67901;DHT22;54700;51.796;10.956;2022-08-25T06:48:33;19.90;67.80
67901;DHT22;54700;51.796;10.956;2022-08-25T06:51:04;19.90;67.40
67901;DHT22;54700;51.796;10.956;2022-08-25T06:53:32;20.00;67.50
67901;DHT22;54700;51.796;10.956;2022-08-25T06:56:01;20.10;68.00
67901;DHT22;54700;51.796;10.956;2022-08-25T06:58:28;20.20;67.70
67901;DHT22;54700;51.796;10.956;2022-08-25T07:00:55;20.30;67.80
67901;DHT22;54700;51.796;10.956;2022-08-25T07:03:22;20.30;67.60
67901;DHT22;54700;51.796;10.956;2022-08-25T07:05:52;20.40;67.30
67901;DHT22;54700;51.796;10.956;2022-08-25T07:08:22;20.40;67.50
67901;DHT22;54700;51.796;10.956;2022-08-25T07:10:48;20.50;67.80
67901;DHT22;54700;51.796;10.956;2022-08-25T07:13:15;20.60;67.70
67901;DHT22;54700;51.796;10.956;2022-08-25T07:15:42;20.60;67.50
67901;DHT22;54700;51.796;10.956;2022-08-25T07:18:10;20.70;67.50
67901;DHT22;54700;51.796;10.956;2022-08-25T07:20:38;20.70;67.30
67901;DHT22;54700;51.796;10.956;2022-08-25T07:23:05;20.70;67.70
67901;DHT22;54700;51.796;10.956;2022-08-25T07:25:36;20.70;68.00
67901;DHT22;54700;51.796;10.956;2022-08-25T07:28:03;20.80;68.10
67901;DHT22;54700;51.796;10.956;2022-08-25T07:30:30;20.80;68.20
67901;DHT22;54700;51.796;10.956;2022-08-25T07:32:56;20.90;68.30
67901;DHT22;54700;51.796;10.956;2022-08-25T07:35:23;21.00;68.10
67901;DHT22;54700;51.796;10.956;2022-08-25T07:37:52;21.10;67.90
67901;DHT22;54700;51.796;10.956;2022-08-25T07:40:23;21.20;67.80
67901;DHT22;54700;51.796;10.956;2022-08-25T07:42:54;21.30;67.70
67901;DHT22;54700;51.796;10.956;2022-08-25T07:45:27;21.40;67.40
67901;DHT22;54700;51.796;10.956;2022-08-25T07:47:55;21.40;67.50
67901;DHT22;54700;51.796;10.956;2022-08-25T07:50:22;21.50;67.20
67901;DHT22;54700;51.796;10.956;2022-08-25T07:52:54;21.60;67.20
67901;DHT22;54700;51.796;10.956;2022-08-25T07:55:26;21.60;67.00
67901;DHT22;54700;51.796;10.956;2022-08-25T07:57:57;21.60;66.70
67901;DHT22;54700;51.796;10.956;2022-08-25T08:00:25;21.70;66.50
67901;DHT22;54700;51.796;10.956;2022-08-25T08:02:54;21.70;66.80
67901;DHT22;54700;51.796;10.956;2022-08-25T08:05:25;21.80;67.10
67901;DHT22;54700;51.796;10.956;2022-08-25T08:07:54;21.80;67.10
67901;DHT22;54700;51.796;10.956;2022-08-25T08:10:21;21.90;67.10
67901;DHT22;54700;51.796;10.956;2022-08-25T08:12:50;22.00;67.10
67901;DHT22;54700;51.796;10.956;2022-08-25T08:15:18;22.00;66.90
67901;DHT22;54700;51.796;10.956;2022-08-25T08:17:46;22.00;66.80
67901;DHT22;54700;51.796;10.956;2022-08-25T08:20:13;22.00;66.90
67901;DHT22;54700;51.796;10.956;2022-08-25T08:22:41;22.10;67.20
67901;DHT22;54700;51.796;10.956;2022-08-25T08:25:09;22.20;67.10
67901;DHT22;54700;51.796;10.956;2022-08-25T08:27:36;22.20;67.20
67901;DHT22;54700;51.796;10.956;2022-08-25T08:30:04;22.40;67.20
67901;DHT22;54700;51.796;10.956;2022-08-25T08:32:33;22.50;67.30
67901;DHT22;54700;51.796;10.956;2022-08-25T08:35:00;22.60;67.10
67901;DHT22;54700;51.796;10.956;2022-08-25T08:37:27;22.80;66.80
67901;DHT22;54700;51.796;10.956;2022-08-25T08:39:54;23.00;66.10
67901;DHT22;54700;51.796;10.956;2022-08-25T08:42:25;23.20;65.50
67901;DHT22;54700;51.796;10.956;2022-08-25T08:45:07;23.40;65.00
67901;DHT22;54700;51.796;10.956;2022-08-25T08:47:51;23.60;64.80
67901;DHT22;54700;51.796;10.956;2022-08-25T08:50:28;23.70;64.80
67901;DHT22;54700;51.796;10.956;2022-08-25T08:53:01;23.70;64.60
67901;DHT22;54700;51.796;10.956;2022-08-25T08:55:34;23.60;64.70
67901;DHT22;54700;51.796;10.956;2022-08-25T08:58:05;23.60;64.60
67901;DHT22;54700;51.796;10.956;2022-08-25T09:00:36;23.50;64.80
67901;DHT22;54700;51.796;10.956;2022-08-25T09:03:11;23.30;65.00
67901;DHT22;54700;51.796;10.956;2022-08-25T09:05:42;23.40;65.30
67901;DHT22;54700;51.796;10.956;2022-08-25T09:08:14;23.60;65.10
67901;DHT22;54700;51.796;10.956;2022-08-25T09:10:45;23.70;64.60
67901;DHT22;54700;51.796;10.956;2022-08-25T09:13:24;23.60;64.60
67901;DHT22;54700;51.796;10.956;2022-08-25T09:15:58;23.70;64.90
67901;DHT22;54700;51.796;10.956;2022-08-25T09:18:54;23.90;64.50
67901;DHT22;54700;51.796;10.956;2022-08-25T09:21:30;23.90;64.10
67901;DHT22;54700;51.796;10.956;2022-08-25T09:24:12;23.90;63.60
67901;DHT22;54700;51.796;10.956;2022-08-25T09:26:54;23.90;63.80
67901;DHT22;54700;51.796;10.956;2022-08-25T09:29:35;23.90;63.80
67901;DHT22;54700;51.796;10.956;2022-08-25T09:32:13;24.00;63.60
67901;DHT22;54700;51.796;10.956;2022-08-25T09:34:43;24.20;63.10
67901;DHT22;54700;51.796;10.956;2022-08-25T09:37:13;24.30;63.00
67901;DHT22;54700;51.796;10.956;2022-08-25T09:39:40;24.60;62.80
67901;DHT22;54700;51.796;10.956;2022-08-25T09:42:07;24.70;61.80
67901;DHT22;54700;51.796;10.956;2022-08-25T09:44:50;24.70;61.30
67901;DHT22;54700;51.796;10.956;2022-08-25T09:47:20;24.70;61.50
67901;DHT22;54700;51.796;10.956;2022-08-25T09:49:50;24.70;61.70
67901;DHT22;54700;51.796;10.956;2022-08-25T09:52:28;24.80;61.80
67901;DHT22;54700;51.796;10.956;2022-08-25T09:54:58;24.80;61.50
67901;DHT22;54700;51.796;10.956;2022-08-25T09:57:29;24.80;61.40
67901;DHT22;54700;51.796;10.956;2022-08-25T10:00:12;25.00;61.00
67901;DHT22;54700;51.796;10.956;2022-08-25T10:03:03;25.20;60.00
67901;DHT22;54700;51.796;10.956;2022-08-25T10:12:44;25.20;59.90
67901;DHT22;54700;51.796;10.956;2022-08-25T10:15:16;25.30;59.50
67901;DHT22;54700;51.796;10.956;2022-08-25T10:17:44;25.40;59.00
67901;DHT22;54700;51.796;10.956;2022-08-25T10:20:13;25.30;58.30
67901;DHT22;54700;51.796;10.956;2022-08-25T10:22:46;25.20;58.30
67901;DHT22;54700;51.796;10.956;2022-08-25T10:25:15;25.10;59.00
67901;DHT22;54700;51.796;10.956;2022-08-25T10:27:50;25.20;59.30
67901;DHT22;54700;51.796;10.956;2022-08-25T10:30:27;25.40;58.50
67901;DHT22;54700;51.796;10.956;2022-08-25T10:33:04;25.40;57.90
67901;DHT22;54700;51.796;10.956;2022-08-25T10:35:43;25.40;58.30
67901;DHT22;54700;51.796;10.956;2022-08-25T10:38:34;25.40;58.20
67901;DHT22;54700;51.796;10.956;2022-08-25T10:41:08;25.40;58.40
67901;DHT22;54700;51.796;10.956;2022-08-25T10:43:48;25.40;58.70
67901;DHT22;54700;51.796;10.956;2022-08-25T10:46:25;25.50;58.60
67901;DHT22;54700;51.796;10.956;2022-08-25T10:49:02;25.70;58.10
67901;DHT22;54700;51.796;10.956;2022-08-25T10:51:37;25.90;57.80
67901;DHT22;54700;51.796;10.956;2022-08-25T10:54:14;26.10;56.30
67901;DHT22;54700;51.796;10.956;2022-08-25T10:56:49;26.10;55.70
67901;DHT22;54700;51.796;10.956;2022-08-25T10:59:26;26.10;54.80
67901;DHT22;54700;51.796;10.956;2022-08-25T11:05:00;25.90;55.20
67901;DHT22;54700;51.796;10.956;2022-08-25T11:07:32;25.80;55.70
67901;DHT22;54700;51.796;10.956;2022-08-25T11:10:03;25.80;54.90
67901;DHT22;54700;51.796;10.956;2022-08-25T11:12:37;25.90;55.30
67901;DHT22;54700;51.796;10.956;2022-08-25T11:15:11;25.90;55.50
67901;DHT22;54700;51.796;10.956;2022-08-25T11:17:45;25.80;55.90
67901;DHT22;54700;51.796;10.956;2022-08-25T11:20:21;25.80;55.90
67901;DHT22;54700;51.796;10.956;2022-08-25T11:23:05;25.80;55.40
67901;DHT22;54700;51.796;10.956;2022-08-25T11:25:39;25.80;55.30
67901;DHT22;54700;51.796;10.956;2022-08-25T11:28:12;25.90;55.40
67901;DHT22;54700;51.796;10.956;2022-08-25T11:30:56;25.90;55.20
67901;DHT22;54700;51.796;10.956;2022-08-25T11:33:26;26.00;55.40
67901;DHT22;54700;51.796;10.956;2022-08-25T11:35:56;26.00;55.40
67901;DHT22;54700;51.796;10.956;2022-08-25T11:38:31;26.00;56.50
67901;DHT22;54700;51.796;10.956;2022-08-25T11:41:14;26.10;55.60
67901;DHT22;54700;51.796;10.956;2022-08-25T11:46:51;26.00;55.30
67901;DHT22;54700;51.796;10.956;2022-08-25T11:49:39;26.00;56.00
67901;DHT22;54700;51.796;10.956;2022-08-25T11:55:21;26.00;55.40
67901;DHT22;54700;51.796;10.956;2022-08-25T12:00:46;26.00;55.00
67901;DHT22;54700;51.796;10.956;2022-08-25T12:06:20;26.10;54.10
67901;DHT22;54700;51.796;10.956;2022-08-25T12:09:06;26.10;53.20
67901;DHT22;54700;51.796;10.956;2022-08-25T12:11:52;26.20;53.70
67901;DHT22;54700;51.796;10.956;2022-08-25T12:14:41;26.20;53.50
67901;DHT22;54700;51.796;10.956;2022-08-25T12:17:20;26.20;54.20
67901;DHT22;54700;51.796;10.956;2022-08-25T12:20:05;26.20;54.10
67901;DHT22;54700;51.796;10.956;2022-08-25T12:22:53;26.30;54.30
67901;DHT22;54700;51.796;10.956;2022-08-25T12:25:27;26.30;54.30
67901;DHT22;54700;51.796;10.956;2022-08-25T12:28:01;26.40;53.80
67901;DHT22;54700;51.796;10.956;2022-08-25T12:30:40;26.40;53.30
67901;DHT22;54700;51.796;10.956;2022-08-25T12:33:14;26.50;52.30
67901;DHT22;54700;51.796;10.956;2022-08-25T12:35:52;26.60;51.40
67901;DHT22;54700;51.796;10.956;2022-08-25T12:38:26;26.70;51.40
67901;DHT22;54700;51.796;10.956;2022-08-25T12:40:57;26.70;51.10
67901;DHT22;54700;51.796;10.956;2022-08-25T12:43:29;26.80;51.60
67901;DHT22;54700;51.796;10.956;2022-08-25T12:49:03;27.00;50.60
67901;DHT22;54700;51.796;10.956;2022-08-25T12:51:44;27.00;50.10
67901;DHT22;54700;51.796;10.956;2022-08-25T12:54:19;27.00;49.90
67901;DHT22;54700;51.796;10.956;2022-08-25T12:56:54;27.00;50.30
67901;DHT22;54700;51.796;10.956;2022-08-25T12:59:31;26.90;49.20
67901;DHT22;54700;51.796;10.956;2022-08-25T13:08:09;27.20;51.00
67901;DHT22;54700;51.796;10.956;2022-08-25T13:10:54;27.30;49.90
67901;DHT22;54700;51.796;10.956;2022-08-25T13:13:30;27.20;50.20
67901;DHT22;54700;51.796;10.956;2022-08-25T13:16:05;27.30;49.90
67901;DHT22;54700;51.796;10.956;2022-08-25T13:18:35;27.30;50.20
67901;DHT22;54700;51.796;10.956;2022-08-25T13:21:05;27.30;48.90
67901;DHT22;54700;51.796;10.956;2022-08-25T13:23:42;27.30;49.10
67901;DHT22;54700;51.796;10.956;2022-08-25T13:26:13;27.20;49.30
67901;DHT22;54700;51.796;10.956;2022-08-25T13:28:43;27.10;49.40
67901;DHT22;54700;51.796;10.956;2022-08-25T13:31:19;27.10;49.80
67901;DHT22;54700;51.796;10.956;2022-08-25T13:33:50;27.10;49.70
67901;DHT22;54700;51.796;10.956;2022-08-25T13:36:18;27.00;49.50
67901;DHT22;54700;51.796;10.956;2022-08-25T13:39:12;26.90;49.30
67901;DHT22;54700;51.796;10.956;2022-08-25T13:41:44;27.00;49.60
67901;DHT22;54700;51.796;10.956;2022-08-25T13:44:12;27.10;49.30
67901;DHT22;54700;51.796;10.956;2022-08-25T13:46:39;27.10;49.20
67901;DHT22;54700;51.796;10.956;2022-08-25T13:49:07;27.10;49.00
67901;DHT22;54700;51.796;10.956;2022-08-25T13:51:34;27.20;49.30
67901;DHT22;54700;51.796;10.956;2022-08-25T13:54:03;27.20;48.90
67901;DHT22;54700;51.796;10.956;2022-08-25T13:56:34;27.20;48.90
67901;DHT22;54700;51.796;10.956;2022-08-25T13:59:04;27.20;48.50
67901;DHT22;54700;51.796;10.956;2022-08-25T14:01:43;27.10;48.30
67901;DHT22;54700;51.796;10.956;2022-08-25T14:04:19;27.10;48.70
67901;DHT22;54700;51.796;10.956;2022-08-25T14:06:52;27.10;49.40
67901;DHT22;54700;51.796;10.956;2022-08-25T14:09:36;27.10;49.00
67901;DHT22;54700;51.796;10.956;2022-08-25T14:12:06;27.10;49.40
67901;DHT22;54700;51.796;10.956;2022-08-25T14:14:33;27.00;49.60
67901;DHT22;54700;51.796;10.956;2022-08-25T14:17:01;27.00;49.70
67901;DHT22;54700;51.796;10.956;2022-08-25T14:19:32;27.00;49.50
67901;DHT22;54700;51.796;10.956;2022-08-25T14:22:00;27.00;49.50
67901;DHT22;54700;51.796;10.956;2022-08-25T14:24:30;27.10;49.40
67901;DHT22;54700;51.796;10.956;2022-08-25T14:26:58;27.10;49.00
67901;DHT22;54700;51.796;10.956;2022-08-25T14:29:28;27.20;49.10
67901;DHT22;54700;51.796;10.956;2022-08-25T14:31:56;27.30;49.10
67901;DHT22;54700;51.796;10.956;2022-08-25T14:34:24;27.40;48.80
67901;DHT22;54700;51.796;10.956;2022-08-25T14:36:55;27.40;48.50
67901;DHT22;54700;51.796;10.956;2022-08-25T14:39:24;27.40;47.80
67901;DHT22;54700;51.796;10.956;2022-08-25T14:41:51;27.30;48.00
67901;DHT22;54700;51.796;10.956;2022-08-25T14:44:18;27.30;48.30
67901;DHT22;54700;51.796;10.956;2022-08-25T14:46:48;27.40;48.20
67901;DHT22;54700;51.796;10.956;2022-08-25T14:49:19;27.40;47.90
67901;DHT22;54700;51.796;10.956;2022-08-25T14:51:47;27.40;48.20
67901;DHT22;54700;51.796;10.956;2022-08-25T14:54:15;27.40;48.20
67901;DHT22;54700;51.796;10.956;2022-08-25T14:56:43;27.50;47.70
67901;DHT22;54700;51.796;10.956;2022-08-25T14:59:12;27.50;48.70
67901;DHT22;54700;51.796;10.956;2022-08-25T15:01:40;27.50;48.70
67901;DHT22;54700;51.796;10.956;2022-08-25T15:04:09;27.60;48.90
67901;DHT22;54700;51.796;10.956;2022-08-25T15:06:38;27.70;48.30
67901;DHT22;54700;51.796;10.956;2022-08-25T15:09:08;27.80;49.00
67901;DHT22;54700;51.796;10.956;2022-08-25T15:11:36;27.80;47.90
67901;DHT22;54700;51.796;10.956;2022-08-25T15:14:05;27.80;47.90
67901;DHT22;54700;51.796;10.956;2022-08-25T15:16:35;27.80;47.80
67901;DHT22;54700;51.796;10.956;2022-08-25T15:19:03;27.80;48.00
67901;DHT22;54700;51.796;10.956;2022-08-25T15:21:32;27.70;48.20
67901;DHT22;54700;51.796;10.956;2022-08-25T15:24:00;27.70;48.20
67901;DHT22;54700;51.796;10.956;2022-08-25T15:26:26;27.60;48.20
67901;DHT22;54700;51.796;10.956;2022-08-25T15:28:53;27.60;48.50
67901;DHT22;54700;51.796;10.956;2022-08-25T15:31:20;27.60;48.70
67901;DHT22;54700;51.796;10.956;2022-08-25T15:33:48;27.60;48.70
67901;DHT22;54700;51.796;10.956;2022-08-25T15:36:16;27.60;48.70
67901;DHT22;54700;51.796;10.956;2022-08-25T15:38:49;27.70;48.60
67901;DHT22;54700;51.796;10.956;2022-08-25T15:41:16;27.60;48.50
67901;DHT22;54700;51.796;10.956;2022-08-25T15:43:44;27.50;48.60
67901;DHT22;54700;51.796;10.956;2022-08-25T15:46:12;27.40;48.70
67901;DHT22;54700;51.796;10.956;2022-08-25T15:48:42;27.30;49.00
67901;DHT22;54700;51.796;10.956;2022-08-25T15:51:09;27.20;48.90
67901;DHT22;54700;51.796;10.956;2022-08-25T15:53:36;27.20;49.20
67901;DHT22;54700;51.796;10.956;2022-08-25T15:56:05;27.10;49.30
67901;DHT22;54700;51.796;10.956;2022-08-25T15:58:32;27.00;49.50
67901;DHT22;54700;51.796;10.956;2022-08-25T16:01:00;27.00;49.80
67901;DHT22;54700;51.796;10.956;2022-08-25T16:03:27;27.00;49.50
67901;DHT22;54700;51.796;10.956;2022-08-25T16:05:55;27.00;49.80
67901;DHT22;54700;51.796;10.956;2022-08-25T16:08:22;27.00;50.00
67901;DHT22;54700;51.796;10.956;2022-08-25T16:10:49;27.00;50.00